• Join FlightAware (Why Join?)
  • Login
  • US Flag 
02:07AM EDT


 

Airport Tracker/Info


-or-


 

Live Flight TrackerFlight Track Log ✈ AMX205 ✈ 03-Oct-2013 ✈ MMTC / TRC - MMMX / MEX

Flight Track Log - Related Links

Times and Time Zones

All times are in EDT time to prevent confusion due to time zone crossing. See the AMX205 flight status page for this flight to view local times or setup timezone preferences in your user account.

Time Position Orientation Groundspeed Altitude Reporting Facility
EDT Latitude Longitude Course Direction KTS MPH feet Rate Location/Type
07:22AM 25.0616 -103.0332 146° Southeast  Level Estimated
07:23AM 24.9770 -102.9706 146° Southeast  Level Estimated
07:24AM 24.8924 -102.9081 146° Southeast  Level Estimated
07:25AM 24.8078 -102.8457 146° Southeast  Level Estimated
07:26AM 24.7232 -102.7834 146° Southeast  Level Estimated
07:27AM 24.6385 -102.7212 146° Southeast  Level Estimated
07:28AM 24.5539 -102.6590 146° Southeast  Level Estimated
07:29AM 24.4692 -102.5969 146° Southeast  Level Estimated
07:30AM 24.3844 -102.5349 146° Southeast  Level Estimated
07:31AM 24.2997 -102.4730 146° Southeast  Level Estimated
07:32AM 24.2149 -102.4112 146° Southeast  Level Estimated
07:33AM 24.1301 -102.3495 146° Southeast  Level Estimated
07:34AM 24.0453 -102.2878 146° Southeast  Level Estimated
07:35AM 23.9604 -102.2262 146° Southeast  Level Estimated
07:36AM 23.8755 -102.1647 146° Southeast  Level Estimated
07:37AM 23.7906 -102.1033 146° Southeast  Level Estimated
07:38AM 23.7057 -102.0420 147° Southeast  Level Estimated
07:39AM 23.6208 -101.9807 147° Southeast  Level Estimated
07:40AM 23.5358 -101.9195 147° Southeast  Level Estimated
07:41AM 23.4508 -101.8584 147° Southeast  Level Estimated
07:42AM 23.3658 -101.7974 147° Southeast  Level Estimated
07:43AM 23.2808 -101.7365 147° Southeast  Level Estimated
07:44AM 23.1957 -101.6756 147° Southeast  Level Estimated
07:45AM 23.1106 -101.6148 147° Southeast  Level Estimated
07:46AM 23.0255 -101.5541 147° Southeast  Level Estimated
07:47AM 22.9403 -101.4935 147° Southeast  Level Estimated
07:47AM 22.8810 -101.3870 147° Southeast 456 525 39,000  Level FlightAware
07:48AM 22.8552 -101.4329 147° Southeast  Level Estimated
07:48AM 22.8160 -101.3390 146° Southeast 458 527 39,000  Level FlightAware
07:48AM 22.7510 -101.2920 146° Southeast 459 528 39,000  Level FlightAware
07:49AM 22.6890 -101.2460 146° Southeast 461 531 39,000  Level FlightAware
07:50AM 22.6240 -101.1980 146° Southeast 462 532 39,000  Level FlightAware
07:50AM 22.5630 -101.1540 146° Southeast 463 533 39,000  Level FlightAware
07:51AM 22.4900 -101.1000 146° Southeast 452 520 39,000  Level FlightAware
07:51AM 22.4270 -101.0550 147° Southeast 450 518 39,000  Level FlightAware
07:52AM 22.3660 -101.0100 146° Southeast 449 517 39,000  Level FlightAware
07:53AM 22.3110 -100.9700 146° Southeast 449 517 39,000  Level FlightAware
07:53AM 22.2540 -100.9180 140° Southeast 445 512 39,000  Level FlightAware
07:54AM 22.2300 -100.8830 127° Southeast 443 510 39,000  Level FlightAware
07:54AM 22.1880 -100.8180 125° Southeast 446 513 39,000  Level FlightAware
07:55AM 22.1430 -100.7670 134° Southeast 446 513 39,000  Level FlightAware
07:55AM 22.0850 -100.7050 135° Southeast 455 524 39,000  Level FlightAware
07:56AM 22.0310 -100.6470 135° Southeast 463 533 39,000  Level FlightAware
07:56AM 21.9800 -100.5920 135° Southeast 464 534 39,000  Level FlightAware
07:57AM 21.9250 -100.5320 135° Southeast 465 535 39,000  Level FlightAware
07:58AM 21.8790 -100.4830 135° Southeast 466 536 39,000  Level FlightAware
07:58AM 21.8220 -100.4210 135° Southeast 467 537 39,000  Level FlightAware
07:59AM 21.7650 -100.3610 136° Southeast 468 539 39,000  Level FlightAware
07:59AM 21.7110 -100.3030 135° Southeast 466 536 39,000  Level FlightAware
08:00AM 21.6560 -100.2440 135° Southeast 454 522 39,000  Level FlightAware
08:01AM 21.6100 -100.1940 135° Southeast 453 521 39,000  Level FlightAware
08:01AM 21.5630 -100.1440 135° Southeast 454 522 39,000  Level FlightAware
08:02AM 21.5180 -100.0950 135° Southeast 454 522 39,000  Level FlightAware
08:02AM 21.4790 -100.0740 153° Southeast 455 524 39,000  Level FlightAware
08:03AM 21.4220 -100.0390 150° Southeast 455 524 39,000  Level FlightAware
08:03AM 21.4790 -100.0740 330° Northwest 455 524 39,000  Level FlightAware
08:04AM 21.2810 -99.9530 150° Southeast 454 522 39,000  Level FlightAware
08:04AM 21.2250 -99.9190 150° Southeast 454 522 39,000  Level FlightAware
08:05AM 21.1700 -99.8840 149° Southeast 454 522 39,000  Level FlightAware
08:06AM 21.1140 -99.8500 150° Southeast 454 522 39,000  Level FlightAware
08:06AM 21.0580 -99.8150 150° Southeast 454 522 39,000  Level FlightAware
08:07AM 21.0030 -99.7810 150° Southeast 454 522 39,000  Level FlightAware
08:07AM 20.9450 -99.7460 151° Southeast 454 522 39,000  Level FlightAware
08:08AM 20.8930 -99.7130 149° Southeast 454 522 39,000  Level FlightAware
08:09AM 20.8360 -99.6780 150° Southeast 454 522 39,000  Level FlightAware
08:09AM 20.7800 -99.6430 150° Southeast 454 522 39,000  Level FlightAware
08:10AM 20.7240 -99.6090 150° Southeast 454 522 39,000  Level FlightAware
08:10AM 20.6670 -99.5740 150° Southeast 454 522 39,000  Level FlightAware
08:11AM 20.6040 -99.5350 150° Southeast 454 522 39,000  Level FlightAware
08:12AM 20.5480 -99.5000 150° Southeast 454 522 39,000  Level FlightAware
08:12AM 20.4920 -99.4660 150° Southeast 454 522 39,000  Level FlightAware
08:13AM 20.4340 -99.4300 150° Southeast 454 522 39,000 -4,620 Level FlightAware
08:16AM 20.1849 -99.3402 161° South  Level Estimated
08:17AM 20.0884 -99.3055 161° South  Level Estimated
08:17AM 19.8840 -99.3260 161° South 292 336 17,800  Level FlightAware
08:17AM 19.8460 -99.3140 163° South 289 333 17,000 -1,500 Descending FlightAware
08:18AM 19.7930 -99.2990 165° South 283 326 16,100 -900 Descending FlightAware
08:19AM 19.7430 -99.2840 164° South 261 300 15,800 -720 Descending FlightAware
08:19AM 19.7000 -99.2710 164° South 266 306 15,200 -1,260 Descending FlightAware
08:20AM 19.6620 -99.2600 165° South 270 311 14,400 -1,440 Descending FlightAware
08:21AM 19.6180 -99.2470 164° South 267 307 13,600 -1,380 Descending FlightAware
08:21AM 19.5780 -99.2350 164° South 253 291 12,800 -1,380 Descending FlightAware
08:22AM 19.5390 -99.2240 165° South 235 270 12,000 -1,380 Descending FlightAware
08:22AM 19.5060 -99.2150 166° South 221 254 11,300 -1,200 Descending FlightAware
08:23AM 19.4730 -99.2060 166° South 202 232 10,700 -1,020 Descending FlightAware
08:23AM 19.4410 -99.1980 167° South 195 224 10,100 -1,140 Descending FlightAware
08:24AM 19.4240 -99.1940 167° South 193 222 9,700 -1,200 Descending FlightAware
08:24AM 19.4050 -99.1890 166° South 195 224 9,300 -1,260 Descending FlightAware
08:24AM 19.3950 -99.1860 164° South 196 226 9,000 -1,260 Descending FlightAware
08:24AM 19.3870 -99.1790 140° Southeast 192 221 8,800 -780 Descending FlightAware
08:25AM 19.3850 -99.1760 125° Southeast 188 216 8,800 -540 Level FlightAware
08:25AM 19.3840 -99.1680 98° East 181 208 8,700 -960 Descending FlightAware
08:25AM 19.3920 -99.1490 66° East 182 209 8,300 -900 Descending FlightAware
08:25AM 19.4000 -99.1350 59° Northeast 173 199 8,100 -840 Descending FlightAware
08:26AM 19.4070 -99.1210 62° Northeast 169 194 7,800 -480 Descending FlightAware
08:26AM 19.4190 -99.1000 59° Northeast 167 192 7,700 -180 Descending FlightAware
08:29AM 19.4363 -99.0721 57° Northeast  Level Estimated
08:30AM 19.4363 -99.0721 43° Northeast  Level Estimated
08:31AM 19.4363 -99.0721 43° Northeast  Level Estimated
08:32AM 19.4363 -99.0721 43° Northeast  Level Estimated
08:33AM 19.4363 -99.0721 43° Northeast  Level Estimated
08:34AM 19.4363 -99.0721 43° Northeast  Level Estimated
08:35AM 19.4363 -99.0721 43° Northeast  Level Estimated
08:36AM 19.4363 -99.0721 43° Northeast  Level Estimated
08:37AM 19.4363 -99.0721 43° Northeast  Level Estimated
08:38AM 19.4363 -99.0721 43° Northeast  Level Estimated
08:39AM 19.4363 -99.0721 43° Northeast  Level Estimated
08:40AM 19.4363 -99.0721 43° Northeast  Level Estimated
08:41AM 19.4363 -99.0721 43° Northeast  Level Estimated
08:42AM 19.4363 -99.0721 43° Northeast  Level Estimated
08:43AM 19.4363 -99.0721 43° Northeast  Level Estimated
08:44AM 19.4363 -99.0721 43° Northeast  Level Estimated